sensor_id;sensor_type;location;lat;lon;timestamp;P1;durP1;ratioP1;P2;durP2;ratioP2
84329;SDS011;74510;42.676;23.432;2024-03-23T00:53:02;31.50;;;13.32;;
84329;SDS011;74510;42.676;23.432;2024-03-23T00:55:28;29.25;;;12.85;;
84329;SDS011;74510;42.676;23.432;2024-03-23T00:57:53;26.13;;;12.48;;
84329;SDS011;74510;42.676;23.432;2024-03-23T01:00:18;23.25;;;11.00;;
84329;SDS011;74510;42.676;23.432;2024-03-23T01:02:44;30.90;;;13.07;;
84329;SDS011;74510;42.676;23.432;2024-03-23T01:05:09;122.78;;;44.90;;
84329;SDS011;74510;42.676;23.432;2024-03-23T01:07:35;52.75;;;23.13;;
84329;SDS011;74510;42.676;23.432;2024-03-23T01:10:00;43.30;;;19.83;;
84329;SDS011;74510;42.676;23.432;2024-03-23T01:12:26;30.65;;;13.13;;
84329;SDS011;74510;42.676;23.432;2024-03-23T01:14:51;20.77;;;12.57;;
84329;SDS011;74510;42.676;23.432;2024-03-23T01:17:16;18.42;;;9.80;;
84329;SDS011;74510;42.676;23.432;2024-03-23T01:19:42;15.85;;;7.70;;
84329;SDS011;74510;42.676;23.432;2024-03-23T01:22:07;17.48;;;8.82;;
84329;SDS011;74510;42.676;23.432;2024-03-23T01:24:35;14.70;;;7.93;;
84329;SDS011;74510;42.676;23.432;2024-03-23T01:27:00;15.80;;;8.63;;
84329;SDS011;74510;42.676;23.432;2024-03-23T01:29:26;13.85;;;9.13;;
84329;SDS011;74510;42.676;23.432;2024-03-23T01:31:51;14.43;;;7.80;;
84329;SDS011;74510;42.676;23.432;2024-03-23T01:34:16;16.10;;;8.98;;
84329;SDS011;74510;42.676;23.432;2024-03-23T01:36:42;13.30;;;7.90;;
84329;SDS011;74510;42.676;23.432;2024-03-23T01:39:08;13.60;;;8.35;;
84329;SDS011;74510;42.676;23.432;2024-03-23T01:41:34;15.02;;;7.95;;
84329;SDS011;74510;42.676;23.432;2024-03-23T01:44:02;13.32;;;7.75;;
84329;SDS011;74510;42.676;23.432;2024-03-23T01:46:31;14.77;;;8.25;;
84329;SDS011;74510;42.676;23.432;2024-03-23T01:48:57;17.85;;;8.30;;
84329;SDS011;74510;42.676;23.432;2024-03-23T01:51:23;13.13;;;7.88;;
84329;SDS011;74510;42.676;23.432;2024-03-23T01:53:48;16.70;;;8.35;;
84329;SDS011;74510;42.676;23.432;2024-03-23T01:56:14;13.27;;;7.88;;
84329;SDS011;74510;42.676;23.432;2024-03-23T01:58:40;15.40;;;9.07;;
84329;SDS011;74510;42.676;23.432;2024-03-23T02:01:06;13.68;;;7.78;;
84329;SDS011;74510;42.676;23.432;2024-03-23T02:03:31;15.30;;;9.30;;
84329;SDS011;74510;42.676;23.432;2024-03-23T02:05:57;14.75;;;7.93;;
84329;SDS011;74510;42.676;23.432;2024-03-23T02:08:23;22.00;;;9.65;;
84329;SDS011;74510;42.676;23.432;2024-03-23T02:10:49;19.25;;;9.18;;
84329;SDS011;74510;42.676;23.432;2024-03-23T02:13:15;17.55;;;9.80;;
84329;SDS011;74510;42.676;23.432;2024-03-23T02:15:43;15.18;;;8.27;;
84329;SDS011;74510;42.676;23.432;2024-03-23T02:18:09;16.00;;;9.18;;
84329;SDS011;74510;42.676;23.432;2024-03-23T02:20:35;16.30;;;8.25;;
84329;SDS011;74510;42.676;23.432;2024-03-23T02:23:01;18.20;;;8.73;;
84329;SDS011;74510;42.676;23.432;2024-03-23T02:25:27;19.30;;;9.80;;
84329;SDS011;74510;42.676;23.432;2024-03-23T02:27:53;17.30;;;8.80;;
84329;SDS011;74510;42.676;23.432;2024-03-23T02:30:19;18.05;;;8.95;;
84329;SDS011;74510;42.676;23.432;2024-03-23T02:32:45;22.50;;;11.18;;
84329;SDS011;74510;42.676;23.432;2024-03-23T02:35:11;24.27;;;10.90;;
84329;SDS011;74510;42.676;23.432;2024-03-23T02:37:36;21.10;;;9.60;;
84329;SDS011;74510;42.676;23.432;2024-03-23T02:40:02;19.63;;;8.18;;
84329;SDS011;74510;42.676;23.432;2024-03-23T02:42:27;15.23;;;8.55;;
84329;SDS011;74510;42.676;23.432;2024-03-23T02:44:53;15.38;;;9.50;;
84329;SDS011;74510;42.676;23.432;2024-03-23T02:47:19;17.35;;;8.95;;
84329;SDS011;74510;42.676;23.432;2024-03-23T02:49:44;14.88;;;9.43;;
84329;SDS011;74510;42.676;23.432;2024-03-23T02:52:10;20.58;;;9.80;;
84329;SDS011;74510;42.676;23.432;2024-03-23T02:54:35;27.73;;;12.30;;
84329;SDS011;74510;42.676;23.432;2024-03-23T02:57:01;27.70;;;13.45;;
84329;SDS011;74510;42.676;23.432;2024-03-23T02:59:26;33.05;;;13.50;;
84329;SDS011;74510;42.676;23.432;2024-03-23T03:01:51;24.45;;;12.02;;
84329;SDS011;74510;42.676;23.432;2024-03-23T03:04:17;28.15;;;13.23;;
84329;SDS011;74510;42.676;23.432;2024-03-23T03:06:44;26.75;;;13.20;;
84329;SDS011;74510;42.676;23.432;2024-03-23T03:09:12;24.48;;;13.30;;
84329;SDS011;74510;42.676;23.432;2024-03-23T03:11:37;23.05;;;12.23;;
84329;SDS011;74510;42.676;23.432;2024-03-23T03:14:02;26.67;;;14.68;;
84329;SDS011;74510;42.676;23.432;2024-03-23T03:16:28;31.25;;;15.38;;
84329;SDS011;74510;42.676;23.432;2024-03-23T03:18:53;32.33;;;14.18;;
84329;SDS011;74510;42.676;23.432;2024-03-23T03:21:19;26.88;;;13.27;;
84329;SDS011;74510;42.676;23.432;2024-03-23T03:23:44;23.77;;;14.23;;
84329;SDS011;74510;42.676;23.432;2024-03-23T03:26:10;24.95;;;15.23;;
84329;SDS011;74510;42.676;23.432;2024-03-23T03:28:35;29.25;;;14.85;;
84329;SDS011;74510;42.676;23.432;2024-03-23T03:31:01;25.30;;;11.90;;
84329;SDS011;74510;42.676;23.432;2024-03-23T03:33:27;22.83;;;12.07;;
84329;SDS011;74510;42.676;23.432;2024-03-23T03:35:53;25.27;;;12.57;;
84329;SDS011;74510;42.676;23.432;2024-03-23T03:38:19;24.70;;;12.40;;
84329;SDS011;74510;42.676;23.432;2024-03-23T03:40:45;28.02;;;14.23;;
84329;SDS011;74510;42.676;23.432;2024-03-23T03:43:10;24.42;;;14.55;;
84329;SDS011;74510;42.676;23.432;2024-03-23T03:45:36;24.58;;;14.10;;
84329;SDS011;74510;42.676;23.432;2024-03-23T03:48:01;30.80;;;13.68;;
84329;SDS011;74510;42.676;23.432;2024-03-23T03:50:27;24.80;;;13.27;;
84329;SDS011;74510;42.676;23.432;2024-03-23T03:52:52;23.48;;;11.80;;
84329;SDS011;74510;42.676;23.432;2024-03-23T03:55:17;24.23;;;15.65;;
84329;SDS011;74510;42.676;23.432;2024-03-23T03:57:43;26.77;;;14.18;;
84329;SDS011;74510;42.676;23.432;2024-03-23T04:00:08;29.13;;;14.15;;
84329;SDS011;74510;42.676;23.432;2024-03-23T04:02:37;23.75;;;12.98;;
84329;SDS011;74510;42.676;23.432;2024-03-23T04:05:04;22.00;;;13.07;;
84329;SDS011;74510;42.676;23.432;2024-03-23T04:07:30;20.52;;;12.73;;
84329;SDS011;74510;42.676;23.432;2024-03-23T04:09:55;24.92;;;13.85;;
84329;SDS011;74510;42.676;23.432;2024-03-23T04:12:21;27.20;;;12.60;;
84329;SDS011;74510;42.676;23.432;2024-03-23T04:14:46;18.75;;;10.07;;
84329;SDS011;74510;42.676;23.432;2024-03-23T04:17:11;22.13;;;10.07;;
84329;SDS011;74510;42.676;23.432;2024-03-23T04:19:37;24.25;;;10.27;;
84329;SDS011;74510;42.676;23.432;2024-03-23T04:22:02;25.60;;;10.55;;
84329;SDS011;74510;42.676;23.432;2024-03-23T04:24:28;24.95;;;11.63;;
84329;SDS011;74510;42.676;23.432;2024-03-23T04:26:54;24.42;;;11.57;;
84329;SDS011;74510;42.676;23.432;2024-03-23T04:29:20;24.23;;;12.73;;
84329;SDS011;74510;42.676;23.432;2024-03-23T04:31:45;21.50;;;11.38;;
84329;SDS011;74510;42.676;23.432;2024-03-23T04:34:10;24.98;;;12.82;;
84329;SDS011;74510;42.676;23.432;2024-03-23T04:36:36;21.90;;;10.40;;
84329;SDS011;74510;42.676;23.432;2024-03-23T04:39:01;15.23;;;8.45;;
84329;SDS011;74510;42.676;23.432;2024-03-23T04:41:27;18.10;;;10.80;;
84329;SDS011;74510;42.676;23.432;2024-03-23T04:43:53;20.10;;;10.13;;
84329;SDS011;74510;42.676;23.432;2024-03-23T04:46:18;19.35;;;9.27;;
84329;SDS011;74510;42.676;23.432;2024-03-23T04:48:45;16.40;;;8.80;;
84329;SDS011;74510;42.676;23.432;2024-03-23T04:51:11;16.17;;;9.18;;
84329;SDS011;74510;42.676;23.432;2024-03-23T04:53:46;19.33;;;9.27;;
84329;SDS011;74510;42.676;23.432;2024-03-23T04:56:13;14.93;;;8.90;;
84329;SDS011;74510;42.676;23.432;2024-03-23T04:58:38;15.68;;;8.85;;
84329;SDS011;74510;42.676;23.432;2024-03-23T05:01:04;16.60;;;8.70;;
84329;SDS011;74510;42.676;23.432;2024-03-23T05:03:29;20.20;;;8.52;;
84329;SDS011;74510;42.676;23.432;2024-03-23T05:05:54;19.30;;;8.63;;
84329;SDS011;74510;42.676;23.432;2024-03-23T05:08:20;23.08;;;9.63;;
84329;SDS011;74510;42.676;23.432;2024-03-23T05:10:45;16.15;;;9.82;;
84329;SDS011;74510;42.676;23.432;2024-03-23T05:13:11;15.32;;;6.97;;
84329;SDS011;74510;42.676;23.432;2024-03-23T05:15:37;16.73;;;7.97;;
84329;SDS011;74510;42.676;23.432;2024-03-23T05:18:03;15.95;;;8.05;;
84329;SDS011;74510;42.676;23.432;2024-03-23T05:20:30;11.88;;;7.25;;
84329;SDS011;74510;42.676;23.432;2024-03-23T05:22:56;14.98;;;7.57;;
84329;SDS011;74510;42.676;23.432;2024-03-23T05:25:21;19.23;;;10.35;;
84329;SDS011;74510;42.676;23.432;2024-03-23T05:27:47;13.15;;;7.72;;
84329;SDS011;74510;42.676;23.432;2024-03-23T05:30:13;14.07;;;8.00;;
84329;SDS011;74510;42.676;23.432;2024-03-23T05:32:39;13.13;;;8.20;;
84329;SDS011;74510;42.676;23.432;2024-03-23T05:35:06;15.30;;;7.78;;
84329;SDS011;74510;42.676;23.432;2024-03-23T05:37:32;14.85;;;9.68;;
84329;SDS011;74510;42.676;23.432;2024-03-23T05:39:59;19.52;;;8.45;;
84329;SDS011;74510;42.676;23.432;2024-03-23T05:42:25;22.10;;;8.68;;
84329;SDS011;74510;42.676;23.432;2024-03-23T05:44:50;16.02;;;8.27;;
84329;SDS011;74510;42.676;23.432;2024-03-23T05:47:15;17.00;;;9.55;;
84329;SDS011;74510;42.676;23.432;2024-03-23T05:49:42;14.82;;;8.40;;
84329;SDS011;74510;42.676;23.432;2024-03-23T05:52:11;24.48;;;9.05;;
84329;SDS011;74510;42.676;23.432;2024-03-23T05:54:36;15.63;;;9.13;;
84329;SDS011;74510;42.676;23.432;2024-03-23T05:57:02;22.90;;;9.45;;
84329;SDS011;74510;42.676;23.432;2024-03-23T05:59:28;17.27;;;9.40;;
84329;SDS011;74510;42.676;23.432;2024-03-23T06:01:54;17.92;;;8.38;;
84329;SDS011;74510;42.676;23.432;2024-03-23T06:04:19;14.23;;;7.25;;
84329;SDS011;74510;42.676;23.432;2024-03-23T06:06:46;14.40;;;7.35;;
84329;SDS011;74510;42.676;23.432;2024-03-23T06:09:11;11.45;;;6.88;;
84329;SDS011;74510;42.676;23.432;2024-03-23T06:11:37;9.93;;;6.43;;
84329;SDS011;74510;42.676;23.432;2024-03-23T06:14:02;12.38;;;7.00;;
84329;SDS011;74510;42.676;23.432;2024-03-23T06:16:28;13.85;;;6.25;;
84329;SDS011;74510;42.676;23.432;2024-03-23T06:18:53;10.75;;;6.55;;
84329;SDS011;74510;42.676;23.432;2024-03-23T06:21:20;11.02;;;6.10;;
84329;SDS011;74510;42.676;23.432;2024-03-23T06:23:45;13.05;;;6.68;;
84329;SDS011;74510;42.676;23.432;2024-03-23T06:26:22;17.75;;;8.68;;
84329;SDS011;74510;42.676;23.432;2024-03-23T06:28:48;11.07;;;6.88;;
84329;SDS011;74510;42.676;23.432;2024-03-23T06:31:13;16.02;;;7.65;;
84329;SDS011;74510;42.676;23.432;2024-03-23T06:33:39;12.43;;;7.10;;
84329;SDS011;74510;42.676;23.432;2024-03-23T06:36:05;13.68;;;6.53;;
84329;SDS011;74510;42.676;23.432;2024-03-23T06:38:31;13.52;;;6.38;;
84329;SDS011;74510;42.676;23.432;2024-03-23T06:40:56;13.30;;;8.48;;
84329;SDS011;74510;42.676;23.432;2024-03-23T06:43:23;14.38;;;7.50;;
84329;SDS011;74510;42.676;23.432;2024-03-23T06:45:54;14.20;;;8.20;;
84329;SDS011;74510;42.676;23.432;2024-03-23T06:48:20;10.98;;;6.93;;
84329;SDS011;74510;42.676;23.432;2024-03-23T06:50:46;18.52;;;8.02;;
84329;SDS011;74510;42.676;23.432;2024-03-23T06:53:12;10.57;;;6.93;;
84329;SDS011;74510;42.676;23.432;2024-03-23T06:55:38;15.10;;;8.48;;
84329;SDS011;74510;42.676;23.432;2024-03-23T06:58:03;14.77;;;8.73;;
84329;SDS011;74510;42.676;23.432;2024-03-23T07:00:29;22.13;;;10.73;;
84329;SDS011;74510;42.676;23.432;2024-03-23T07:02:55;17.65;;;8.63;;
84329;SDS011;74510;42.676;23.432;2024-03-23T07:05:20;14.77;;;8.55;;
84329;SDS011;74510;42.676;23.432;2024-03-23T07:07:46;20.23;;;8.68;;
84329;SDS011;74510;42.676;23.432;2024-03-23T07:10:11;20.08;;;8.77;;
84329;SDS011;74510;42.676;23.432;2024-03-23T07:12:36;17.77;;;10.15;;
84329;SDS011;74510;42.676;23.432;2024-03-23T07:15:02;13.07;;;7.85;;
84329;SDS011;74510;42.676;23.432;2024-03-23T07:17:28;15.85;;;8.07;;
84329;SDS011;74510;42.676;23.432;2024-03-23T07:19:53;19.15;;;9.00;;
84329;SDS011;74510;42.676;23.432;2024-03-23T07:22:19;12.93;;;7.47;;
84329;SDS011;74510;42.676;23.432;2024-03-23T07:24:44;16.80;;;7.95;;
84329;SDS011;74510;42.676;23.432;2024-03-23T07:27:10;12.15;;;7.90;;
84329;SDS011;74510;42.676;23.432;2024-03-23T07:29:35;12.77;;;8.13;;
84329;SDS011;74510;42.676;23.432;2024-03-23T07:32:01;14.85;;;8.57;;
84329;SDS011;74510;42.676;23.432;2024-03-23T07:34:27;14.02;;;6.95;;
84329;SDS011;74510;42.676;23.432;2024-03-23T07:36:52;13.40;;;7.15;;
84329;SDS011;74510;42.676;23.432;2024-03-23T07:39:17;12.52;;;7.30;;
84329;SDS011;74510;42.676;23.432;2024-03-23T07:41:46;13.90;;;8.13;;
84329;SDS011;74510;42.676;23.432;2024-03-23T07:44:11;13.77;;;8.02;;
84329;SDS011;74510;42.676;23.432;2024-03-23T07:46:37;10.90;;;7.30;;
84329;SDS011;74510;42.676;23.432;2024-03-23T07:49:04;15.63;;;8.05;;
84329;SDS011;74510;42.676;23.432;2024-03-23T07:51:29;13.85;;;8.52;;
84329;SDS011;74510;42.676;23.432;2024-03-23T07:53:55;11.50;;;7.07;;
84329;SDS011;74510;42.676;23.432;2024-03-23T07:56:20;15.88;;;8.93;;
84329;SDS011;74510;42.676;23.432;2024-03-23T07:58:46;11.02;;;6.97;;
84329;SDS011;74510;42.676;23.432;2024-03-23T08:01:16;15.25;;;7.15;;
84329;SDS011;74510;42.676;23.432;2024-03-23T08:03:45;14.73;;;8.07;;
84329;SDS011;74510;42.676;23.432;2024-03-23T08:06:14;12.75;;;9.23;;
84329;SDS011;74510;42.676;23.432;2024-03-23T08:08:40;15.10;;;8.80;;
84329;SDS011;74510;42.676;23.432;2024-03-23T08:11:06;15.57;;;7.68;;
84329;SDS011;74510;42.676;23.432;2024-03-23T08:13:33;14.45;;;6.97;;
84329;SDS011;74510;42.676;23.432;2024-03-23T08:15:59;11.88;;;7.45;;
84329;SDS011;74510;42.676;23.432;2024-03-23T08:18:25;10.02;;;6.40;;
84329;SDS011;74510;42.676;23.432;2024-03-23T08:21:01;10.43;;;6.13;;
84329;SDS011;74510;42.676;23.432;2024-03-23T08:23:28;12.10;;;6.38;;
84329;SDS011;74510;42.676;23.432;2024-03-23T08:25:57;12.10;;;5.35;;
84329;SDS011;74510;42.676;23.432;2024-03-23T08:28:23;8.35;;;5.78;;
84329;SDS011;74510;42.676;23.432;2024-03-23T08:30:49;11.27;;;6.82;;
84329;SDS011;74510;42.676;23.432;2024-03-23T08:33:15;9.57;;;5.78;;
84329;SDS011;74510;42.676;23.432;2024-03-23T08:35:41;11.10;;;6.38;;
84329;SDS011;74510;42.676;23.432;2024-03-23T08:38:06;8.90;;;5.53;;
84329;SDS011;74510;42.676;23.432;2024-03-23T08:40:32;9.52;;;5.70;;
84329;SDS011;74510;42.676;23.432;2024-03-23T08:42:57;13.25;;;8.18;;
84329;SDS011;74510;42.676;23.432;2024-03-23T08:45:24;17.55;;;9.40;;
84329;SDS011;74510;42.676;23.432;2024-03-23T08:47:49;15.48;;;6.05;;
84329;SDS011;74510;42.676;23.432;2024-03-23T08:50:15;10.43;;;6.05;;
84329;SDS011;74510;42.676;23.432;2024-03-23T08:52:40;9.80;;;5.80;;
84329;SDS011;74510;42.676;23.432;2024-03-23T08:55:06;11.35;;;6.80;;
84329;SDS011;74510;42.676;23.432;2024-03-23T08:57:31;10.95;;;6.47;;
84329;SDS011;74510;42.676;23.432;2024-03-23T08:59:57;12.98;;;6.80;;
84329;SDS011;74510;42.676;23.432;2024-03-23T09:02:23;11.85;;;6.47;;
84329;SDS011;74510;42.676;23.432;2024-03-23T09:04:48;15.10;;;6.45;;
84329;SDS011;74510;42.676;23.432;2024-03-23T09:07:14;10.57;;;6.05;;
84329;SDS011;74510;42.676;23.432;2024-03-23T09:09:39;11.15;;;6.60;;
84329;SDS011;74510;42.676;23.432;2024-03-23T09:12:05;10.23;;;5.00;;
84329;SDS011;74510;42.676;23.432;2024-03-23T09:14:32;8.57;;;5.18;;
84329;SDS011;74510;42.676;23.432;2024-03-23T09:16:58;9.45;;;5.25;;
84329;SDS011;74510;42.676;23.432;2024-03-23T09:19:24;12.75;;;6.35;;
84329;SDS011;74510;42.676;23.432;2024-03-23T09:21:51;10.55;;;5.78;;
84329;SDS011;74510;42.676;23.432;2024-03-23T09:24:17;12.07;;;6.32;;
84329;SDS011;74510;42.676;23.432;2024-03-23T09:26:42;10.60;;;6.18;;
84329;SDS011;74510;42.676;23.432;2024-03-23T09:29:08;9.45;;;5.63;;
84329;SDS011;74510;42.676;23.432;2024-03-23T09:31:33;12.52;;;6.93;;
84329;SDS011;74510;42.676;23.432;2024-03-23T09:33:58;10.07;;;6.20;;
84329;SDS011;74510;42.676;23.432;2024-03-23T09:36:24;10.57;;;6.10;;
84329;SDS011;74510;42.676;23.432;2024-03-23T09:38:49;12.82;;;6.32;;
84329;SDS011;74510;42.676;23.432;2024-03-23T09:41:14;10.38;;;5.97;;
84329;SDS011;74510;42.676;23.432;2024-03-23T09:43:40;11.15;;;6.18;;
84329;SDS011;74510;42.676;23.432;2024-03-23T09:46:06;9.55;;;6.15;;
84329;SDS011;74510;42.676;23.432;2024-03-23T09:48:32;8.88;;;6.18;;
84329;SDS011;74510;42.676;23.432;2024-03-23T09:50:58;10.50;;;5.80;;
84329;SDS011;74510;42.676;23.432;2024-03-23T09:53:24;10.00;;;6.43;;
84329;SDS011;74510;42.676;23.432;2024-03-23T09:55:49;10.40;;;5.68;;
84329;SDS011;74510;42.676;23.432;2024-03-23T09:58:16;10.35;;;5.50;;
84329;SDS011;74510;42.676;23.432;2024-03-23T10:00:43;9.80;;;6.30;;
84329;SDS011;74510;42.676;23.432;2024-03-23T10:03:08;10.90;;;6.07;;
84329;SDS011;74510;42.676;23.432;2024-03-23T10:05:36;8.82;;;5.10;;
84329;SDS011;74510;42.676;23.432;2024-03-23T10:10:40;7.88;;;4.20;;
84329;SDS011;74510;42.676;23.432;2024-03-23T10:13:06;7.97;;;5.13;;
84329;SDS011;74510;42.676;23.432;2024-03-23T10:15:33;9.10;;;5.90;;
84329;SDS011;74510;42.676;23.432;2024-03-23T10:18:02;9.30;;;5.10;;
84329;SDS011;74510;42.676;23.432;2024-03-23T10:20:43;11.05;;;4.80;;
84329;SDS011;74510;42.676;23.432;2024-03-23T10:23:15;10.15;;;4.93;;
84329;SDS011;74510;42.676;23.432;2024-03-23T10:25:41;10.32;;;4.93;;
84329;SDS011;74510;42.676;23.432;2024-03-23T10:28:07;7.28;;;4.22;;
84329;SDS011;74510;42.676;23.432;2024-03-23T10:30:32;8.38;;;5.03;;
84329;SDS011;74510;42.676;23.432;2024-03-23T10:33:10;8.90;;;4.32;;
84329;SDS011;74510;42.676;23.432;2024-03-23T10:35:38;8.00;;;4.45;;
84329;SDS011;74510;42.676;23.432;2024-03-23T10:38:04;10.80;;;4.55;;
84329;SDS011;74510;42.676;23.432;2024-03-23T10:40:31;8.02;;;4.30;;
84329;SDS011;74510;42.676;23.432;2024-03-23T10:42:59;8.52;;;4.30;;
84329;SDS011;74510;42.676;23.432;2024-03-23T10:45:25;8.25;;;4.18;;
84329;SDS011;74510;42.676;23.432;2024-03-23T10:47:51;4.78;;;3.33;;
84329;SDS011;74510;42.676;23.432;2024-03-23T10:50:17;6.03;;;3.88;;
84329;SDS011;74510;42.676;23.432;2024-03-23T10:52:43;6.25;;;3.22;;
84329;SDS011;74510;42.676;23.432;2024-03-23T10:55:11;7.38;;;3.70;;
84329;SDS011;74510;42.676;23.432;2024-03-23T10:57:41;7.05;;;4.90;;
84329;SDS011;74510;42.676;23.432;2024-03-23T11:00:10;8.60;;;4.57;;
84329;SDS011;74510;42.676;23.432;2024-03-23T11:02:37;9.27;;;4.93;;
84329;SDS011;74510;42.676;23.432;2024-03-23T11:05:14;9.05;;;5.35;;
84329;SDS011;74510;42.676;23.432;2024-03-23T11:07:50;12.13;;;6.30;;
84329;SDS011;74510;42.676;23.432;2024-03-23T11:10:26;8.52;;;5.28;;
84329;SDS011;74510;42.676;23.432;2024-03-23T11:12:54;10.18;;;4.60;;
84329;SDS011;74510;42.676;23.432;2024-03-23T11:15:20;8.35;;;5.00;;
84329;SDS011;74510;42.676;23.432;2024-03-23T11:18:04;8.38;;;4.43;;
84329;SDS011;74510;42.676;23.432;2024-03-23T11:20:33;7.55;;;5.65;;
84329;SDS011;74510;42.676;23.432;2024-03-23T11:22:59;6.70;;;4.35;;
84329;SDS011;74510;42.676;23.432;2024-03-23T11:25:26;9.90;;;4.25;;
84329;SDS011;74510;42.676;23.432;2024-03-23T11:32:47;9.15;;;4.32;;
84329;SDS011;74510;42.676;23.432;2024-03-23T11:38:16;6.50;;;3.58;;
84329;SDS011;74510;42.676;23.432;2024-03-23T11:40:47;5.95;;;4.30;;
84329;SDS011;74510;42.676;23.432;2024-03-23T11:43:14;8.02;;;4.22;;
84329;SDS011;74510;42.676;23.432;2024-03-23T11:45:45;6.25;;;3.55;;
84329;SDS011;74510;42.676;23.432;2024-03-23T11:48:18;5.80;;;3.83;;
84329;SDS011;74510;42.676;23.432;2024-03-23T11:53:20;8.50;;;5.00;;
84329;SDS011;74510;42.676;23.432;2024-03-23T11:55:55;7.60;;;4.80;;
84329;SDS011;74510;42.676;23.432;2024-03-23T11:58:25;8.55;;;3.42;;
84329;SDS011;74510;42.676;23.432;2024-03-23T12:03:17;6.80;;;3.75;;
84329;SDS011;74510;42.676;23.432;2024-03-23T12:05:47;9.05;;;5.15;;
84329;SDS011;74510;42.676;23.432;2024-03-23T12:08:24;9.27;;;5.13;;
84329;SDS011;74510;42.676;23.432;2024-03-23T12:11:10;7.82;;;4.80;;
84329;SDS011;74510;42.676;23.432;2024-03-23T12:13:38;6.75;;;4.93;;
84329;SDS011;74510;42.676;23.432;2024-03-23T12:16:11;7.93;;;4.40;;
84329;SDS011;74510;42.676;23.432;2024-03-23T12:18:42;9.95;;;4.55;;
84329;SDS011;74510;42.676;23.432;2024-03-23T12:21:09;11.27;;;4.80;;
84329;SDS011;74510;42.676;23.432;2024-03-23T12:23:35;7.20;;;4.75;;
84329;SDS011;74510;42.676;23.432;2024-03-23T12:26:01;9.02;;;5.15;;
84329;SDS011;74510;42.676;23.432;2024-03-23T12:28:27;7.65;;;5.10;;
84329;SDS011;74510;42.676;23.432;2024-03-23T12:30:52;7.70;;;4.60;;
84329;SDS011;74510;42.676;23.432;2024-03-23T12:33:19;11.57;;;6.03;;
84329;SDS011;74510;42.676;23.432;2024-03-23T12:35:44;7.22;;;4.70;;
84329;SDS011;74510;42.676;23.432;2024-03-23T12:38:10;7.68;;;4.68;;
84329;SDS011;74510;42.676;23.432;2024-03-23T12:40:35;7.35;;;4.47;;
84329;SDS011;74510;42.676;23.432;2024-03-23T12:43:01;11.75;;;4.60;;
84329;SDS011;74510;42.676;23.432;2024-03-23T12:45:26;9.13;;;4.70;;
84329;SDS011;74510;42.676;23.432;2024-03-23T12:47:52;7.53;;;4.72;;
84329;SDS011;74510;42.676;23.432;2024-03-23T12:50:20;8.60;;;4.60;;
84329;SDS011;74510;42.676;23.432;2024-03-23T12:52:47;8.80;;;4.78;;
84329;SDS011;74510;42.676;23.432;2024-03-23T12:55:12;9.32;;;4.10;;
84329;SDS011;74510;42.676;23.432;2024-03-23T12:57:38;6.70;;;4.57;;
84329;SDS011;74510;42.676;23.432;2024-03-23T13:00:03;8.85;;;5.20;;
84329;SDS011;74510;42.676;23.432;2024-03-23T13:02:29;8.73;;;5.53;;
84329;SDS011;74510;42.676;23.432;2024-03-23T13:04:55;9.57;;;5.15;;
84329;SDS011;74510;42.676;23.432;2024-03-23T13:07:21;12.65;;;5.30;;
84329;SDS011;74510;42.676;23.432;2024-03-23T13:09:51;8.63;;;4.65;;
84329;SDS011;74510;42.676;23.432;2024-03-23T13:12:17;9.63;;;4.90;;
84329;SDS011;74510;42.676;23.432;2024-03-23T13:14:46;8.88;;;5.13;;
84329;SDS011;74510;42.676;23.432;2024-03-23T13:17:12;8.13;;;3.97;;
84329;SDS011;74510;42.676;23.432;2024-03-23T13:19:37;13.45;;;3.88;;
84329;SDS011;74510;42.676;23.432;2024-03-23T13:22:03;7.22;;;4.32;;
84329;SDS011;74510;42.676;23.432;2024-03-23T13:24:29;8.50;;;3.88;;
84329;SDS011;74510;42.676;23.432;2024-03-23T13:26:55;6.40;;;3.70;;
84329;SDS011;74510;42.676;23.432;2024-03-23T13:29:21;6.13;;;3.53;;
84329;SDS011;74510;42.676;23.432;2024-03-23T13:31:47;7.97;;;4.10;;
84329;SDS011;74510;42.676;23.432;2024-03-23T13:34:14;5.93;;;3.63;;
84329;SDS011;74510;42.676;23.432;2024-03-23T13:36:43;7.32;;;4.00;;
84329;SDS011;74510;42.676;23.432;2024-03-23T13:39:09;7.82;;;4.82;;
84329;SDS011;74510;42.676;23.432;2024-03-23T13:41:40;7.28;;;3.88;;
84329;SDS011;74510;42.676;23.432;2024-03-23T13:44:45;8.48;;;3.25;;
84329;SDS011;74510;42.676;23.432;2024-03-23T13:47:10;7.88;;;3.65;;
84329;SDS011;74510;42.676;23.432;2024-03-23T13:49:35;6.22;;;3.10;;
84329;SDS011;74510;42.676;23.432;2024-03-23T13:52:01;5.78;;;2.83;;
84329;SDS011;74510;42.676;23.432;2024-03-23T13:54:27;5.75;;;3.42;;
84329;SDS011;74510;42.676;23.432;2024-03-23T13:56:53;6.13;;;3.60;;
84329;SDS011;74510;42.676;23.432;2024-03-23T13:59:19;6.07;;;3.15;;
84329;SDS011;74510;42.676;23.432;2024-03-23T14:01:46;5.03;;;2.80;;
84329;SDS011;74510;42.676;23.432;2024-03-23T14:04:12;7.18;;;3.13;;
84329;SDS011;74510;42.676;23.432;2024-03-23T14:06:38;6.93;;;3.13;;
84329;SDS011;74510;42.676;23.432;2024-03-23T14:09:04;5.30;;;2.90;;
84329;SDS011;74510;42.676;23.432;2024-03-23T14:11:30;4.53;;;2.88;;
84329;SDS011;74510;42.676;23.432;2024-03-23T14:13:56;4.63;;;3.65;;
84329;SDS011;74510;42.676;23.432;2024-03-23T14:16:21;4.10;;;2.95;;
84329;SDS011;74510;42.676;23.432;2024-03-23T14:18:47;6.10;;;3.47;;
84329;SDS011;74510;42.676;23.432;2024-03-23T14:21:12;7.55;;;3.55;;
84329;SDS011;74510;42.676;23.432;2024-03-23T14:23:38;7.35;;;3.17;;
84329;SDS011;74510;42.676;23.432;2024-03-23T14:26:05;6.82;;;3.50;;
84329;SDS011;74510;42.676;23.432;2024-03-23T14:28:31;4.97;;;3.30;;
84329;SDS011;74510;42.676;23.432;2024-03-23T14:30:57;5.88;;;3.80;;
84329;SDS011;74510;42.676;23.432;2024-03-23T14:33:22;5.15;;;2.60;;
84329;SDS011;74510;42.676;23.432;2024-03-23T14:35:55;7.93;;;3.10;;
84329;SDS011;74510;42.676;23.432;2024-03-23T14:38:24;5.85;;;3.08;;
84329;SDS011;74510;42.676;23.432;2024-03-23T14:40:50;4.88;;;2.42;;
84329;SDS011;74510;42.676;23.432;2024-03-23T14:43:17;11.68;;;3.13;;
84329;SDS011;74510;42.676;23.432;2024-03-23T14:48:45;5.40;;;2.72;;
84329;SDS011;74510;42.676;23.432;2024-03-23T14:51:11;4.32;;;2.38;;
84329;SDS011;74510;42.676;23.432;2024-03-23T14:53:38;3.40;;;2.00;;
84329;SDS011;74510;42.676;23.432;2024-03-23T14:56:05;4.60;;;2.40;;
84329;SDS011;74510;42.676;23.432;2024-03-23T14:58:31;7.72;;;2.92;;
84329;SDS011;74510;42.676;23.432;2024-03-23T15:01:03;4.00;;;2.30;;
84329;SDS011;74510;42.676;23.432;2024-03-23T15:03:30;3.15;;;1.80;;
84329;SDS011;74510;42.676;23.432;2024-03-23T15:05:58;4.18;;;2.70;;
84329;SDS011;74510;42.676;23.432;2024-03-23T15:08:27;4.20;;;2.67;;
84329;SDS011;74510;42.676;23.432;2024-03-23T15:10:53;6.78;;;2.97;;
84329;SDS011;74510;42.676;23.432;2024-03-23T15:13:18;3.47;;;2.10;;
84329;SDS011;74510;42.676;23.432;2024-03-23T15:15:44;6.05;;;2.35;;
84329;SDS011;74510;42.676;23.432;2024-03-23T15:18:12;4.63;;;2.40;;
84329;SDS011;74510;42.676;23.432;2024-03-23T15:20:40;6.15;;;2.28;;
84329;SDS011;74510;42.676;23.432;2024-03-23T15:23:06;5.70;;;2.38;;
84329;SDS011;74510;42.676;23.432;2024-03-23T15:25:31;4.50;;;2.85;;
84329;SDS011;74510;42.676;23.432;2024-03-23T15:27:57;4.00;;;2.13;;
84329;SDS011;74510;42.676;23.432;2024-03-23T15:30:24;3.45;;;2.47;;